Time;durP1;ratioP1;P1;durP2;ratioP2;P2;SDS_P1;SDS_P2;PMS_P1;PMS_P2;Temp;Humidity;BMP_temperature;BMP_pressure;BME280_temperature;BME280_humidity;BME280_pressure;Samples;Min_cycle;Max_cycle;Signal;HPM_P1;HPM_P2
2022/08/14 00:01:10;;;;;;;31.02;8.85;;;;;;;-144.43;100.00;67396.00;5082280;28;20897;-59
2022/08/14 00:03:37;;;;;;;16.30;6.40;;;;;;;-144.43;100.00;67396.00;5090041;28;20040;-58
2022/08/14 00:06:04;;;;;;;13.23;3.60;;;;;;;-144.43;100.00;67396.00;5087172;28;20036;-59
2022/08/14 00:09:11;;;;;;;13.05;4.40;;;;;;;-144.43;100.00;67396.00;5086593;28;20032;-59
2022/08/14 00:11:38;;;;;;;15.35;5.25;;;;;;;-144.43;100.00;67396.00;5090994;28;20500;-59
2022/08/14 00:14:04;;;;;;;13.90;5.13;;;;;;;-144.43;100.00;67396.00;5090039;28;20486;-58
2022/08/14 00:16:31;;;;;;;8.63;3.90;;;;;;;-144.43;100.00;67396.00;5086903;28;20102;-58
2022/08/14 00:18:59;;;;;;;6.90;3.92;;;;;;;-144.43;100.00;67396.00;5085870;28;20036;-58
2022/08/14 00:21:32;;;;;;;8.57;5.00;;;;;;;-144.43;100.00;67396.00;5090182;28;20359;-58
2022/08/14 00:23:59;;;;;;;13.43;4.78;;;;;;;-144.43;100.00;67396.00;5089210;28;20032;-58
2022/08/14 00:26:26;;;;;;;10.02;3.78;;;;;;;-144.43;100.00;67396.00;5084899;28;20439;-58
2022/08/14 00:28:54;;;;;;;9.20;4.30;;;;;;;-144.43;100.00;67396.00;5087457;28;20035;-58
2022/08/14 00:31:22;;;;;;;12.07;4.38;;;;;;;-144.43;100.00;67396.00;5089141;28;20077;-59
2022/08/14 00:33:49;;;;;;;17.40;4.82;;;;;;;-144.43;100.00;67396.00;5088007;28;20039;-59
2022/08/14 00:36:17;;;;;;;18.15;5.03;;;;;;;-144.43;100.00;67396.00;5086597;28;20036;-58
2022/08/14 00:38:45;;;;;;;12.50;5.57;;;;;;;-144.43;100.00;67396.00;5085683;28;20040;-58
2022/08/14 00:41:12;;;;;;;12.88;5.95;;;;;;;-144.43;100.00;67396.00;5087614;28;20458;-58
2022/08/14 00:43:40;;;;;;;14.68;5.65;;;;;;;-144.43;100.00;67396.00;5089385;28;20363;-58
2022/08/14 00:46:10;;;;;;;12.55;5.32;;;;;;;-144.43;100.00;67396.00;5088299;28;20111;-58
2022/08/14 00:48:38;;;;;;;11.88;4.85;;;;;;;-144.43;100.00;67396.00;5086816;28;20023;-58
2022/08/14 00:51:10;;;;;;;13.40;6.03;;;;;;;-144.43;100.00;67396.00;5083803;28;20031;-59
2022/08/14 00:53:38;;;;;;;16.85;7.00;;;;;;;-144.43;100.00;67396.00;5089397;28;20032;-58
2022/08/14 00:56:08;;;;;;;21.02;6.65;;;;;;;-144.43;100.00;67396.00;5080161;28;20035;-58
2022/08/14 00:58:36;;;;;;;16.05;6.25;;;;;;;-144.43;100.00;67396.00;5079858;28;20028;-58
2022/08/14 01:01:10;;;;;;;10.73;5.10;;;;;;;-144.43;100.00;67396.00;5087929;28;20043;-58
2022/08/14 01:03:38;;;;;;;11.53;3.80;;;;;;;-144.43;100.00;67396.00;5079205;28;20039;-58
2022/08/14 01:06:10;;;;;;;11.77;4.00;;;;;;;-144.43;100.00;67396.00;5077205;28;20039;-58
2022/08/14 01:08:38;;;;;;;8.40;3.47;;;;;;;-144.43;100.00;67396.00;5078340;28;20372;-57
2022/08/14 01:11:07;;;;;;;14.30;3.45;;;;;;;-144.43;100.00;67396.00;5077506;28;20031;-58
2022/08/14 01:13:38;;;;;;;8.82;2.80;;;;;;;-144.43;100.00;67396.00;5084639;28;20100;-58
2022/08/14 01:16:09;;;;;;;9.68;3.00;;;;;;;-144.43;100.00;67396.00;5088150;28;20032;-58
2022/08/14 01:21:35;;;;;;;13.48;2.65;;;;;;;-144.43;100.00;67396.00;5082424;28;20028;-58
2022/08/14 01:24:05;;;;;;;9.23;2.30;;;;;;;-144.43;100.00;67396.00;5089400;28;20077;-58
2022/08/14 01:26:37;;;;;;;10.18;2.70;;;;;;;-144.43;100.00;67396.00;5083077;28;20075;-60
2022/08/14 01:29:05;;;;;;;11.90;2.53;;;;;;;-144.43;100.00;67396.00;5085362;28;20498;-58
2022/08/14 01:34:11;;;;;;;12.57;2.95;;;;;;;-144.43;100.00;67396.00;5079251;28;20433;-58
2022/08/14 01:36:38;;;;;;;10.85;2.58;;;;;;;-144.43;100.00;67396.00;5075647;28;20109;-58
2022/08/14 01:39:16;;;;;;;10.27;2.60;;;;;;;-144.43;100.00;67396.00;5080501;28;20068;-58
2022/08/14 01:41:55;;;;;;;9.88;2.47;;;;;;;-144.43;100.00;67396.00;5077935;28;20039;-58
2022/08/14 01:44:27;;;;;;;7.35;2.40;;;;;;;-144.43;100.00;67396.00;5077780;28;20108;-58
2022/08/14 01:46:56;;;;;;;10.48;3.13;;;;;;;-144.43;100.00;67396.00;5084071;28;20115;-58
2022/08/14 01:49:23;;;;;;;13.98;3.92;;;;;;;-144.43;100.00;67396.00;5082883;28;20111;-58
2022/08/14 01:51:55;;;;;;;11.63;4.00;;;;;;;-144.43;100.00;67396.00;5080764;28;20050;-58
2022/08/14 01:54:24;;;;;;;11.77;4.25;;;;;;;-144.43;100.00;67396.00;5083929;28;20104;-59
2022/08/14 01:56:57;;;;;;;10.88;3.00;;;;;;;-144.43;100.00;67396.00;5079855;28;20138;-58
2022/08/14 01:59:33;;;;;;;9.32;3.25;;;;;;;-144.43;100.00;67396.00;5085321;28;20028;-60
2022/08/14 02:02:06;;;;;;;7.80;2.58;;;;;;;-144.43;100.00;67396.00;5088900;28;20036;-60
2022/08/14 02:04:35;;;;;;;11.60;3.40;;;;;;;-144.43;100.00;67396.00;5085097;28;20036;-58
2022/08/14 02:07:04;;;;;;;17.17;3.33;;;;;;;-144.43;100.00;67396.00;5085991;28;20070;-58
2022/08/14 02:09:34;;;;;;;12.98;2.90;;;;;;;-144.43;100.00;67396.00;5087731;28;20024;-58
2022/08/14 02:12:03;;;;;;;8.43;2.60;;;;;;;-144.43;100.00;67396.00;5083264;28;20464;-58
2022/08/14 02:14:35;;;;;;;8.05;2.90;;;;;;;-144.43;100.00;67396.00;5083789;28;20081;-58
2022/08/14 02:17:08;;;;;;;11.48;3.47;;;;;;;-144.43;100.00;67396.00;5090616;28;20107;-58
2022/08/14 02:19:35;;;;;;;7.85;3.20;;;;;;;-144.43;100.00;67396.00;5088456;28;20051;-58
2022/08/14 02:22:02;;;;;;;8.05;3.17;;;;;;;-144.43;100.00;67396.00;5087972;28;20032;-58
2022/08/14 02:24:30;;;;;;;14.23;3.25;;;;;;;-144.43;100.00;67396.00;5069336;28;20132;-57
2022/08/14 02:26:59;;;;;;;17.55;3.58;;;;;;;-144.43;100.00;67396.00;5081091;28;20031;-57
2022/08/14 02:29:29;;;;;;;12.65;3.63;;;;;;;-144.43;100.00;67396.00;5084835;28;20033;-57
2022/08/14 02:32:00;;;;;;;12.40;3.92;;;;;;;-144.43;100.00;67396.00;5084490;28;20067;-57
2022/08/14 02:34:35;;;;;;;10.27;3.78;;;;;;;-144.43;100.00;67396.00;5086614;28;20056;-57
2022/08/14 02:37:08;;;;;;;14.75;5.63;;;;;;;-144.43;100.00;67396.00;5088574;28;20391;-57
2022/08/14 02:39:40;;;;;;;20.50;6.10;;;;;;;-144.43;100.00;67396.00;5087337;28;20037;-57
2022/08/14 02:42:11;;;;;;;16.48;6.05;;;;;;;-144.43;100.00;67396.00;5080454;28;20036;-57
2022/08/14 02:44:43;;;;;;;23.90;6.38;;;;;;;-144.43;100.00;67396.00;5085078;28;20024;-57
2022/08/14 02:47:10;;;;;;;18.88;6.50;;;;;;;-144.43;100.00;67396.00;5084643;28;20032;-57
2022/08/14 02:49:38;;;;;;;18.75;9.55;;;;;;;-144.43;100.00;67396.00;5093798;28;20032;-58
2022/08/14 02:52:06;;;;;;;18.30;7.07;;;;;;;-144.43;100.00;67396.00;5086502;28;20028;-57
2022/08/14 02:54:34;;;;;;;14.73;5.40;;;;;;;-144.43;100.00;67396.00;5086922;28;20103;-58
2022/08/14 02:57:05;;;;;;;17.27;5.50;;;;;;;-144.43;100.00;67396.00;5086468;28;20031;-58
2022/08/14 02:59:34;;;;;;;14.80;4.93;;;;;;;-144.43;100.00;67396.00;5085560;28;20040;-57
2022/08/14 03:02:03;;;;;;;19.35;5.03;;;;;;;-144.43;100.00;67396.00;5087115;28;20040;-57
2022/08/14 03:04:30;;;;;;;21.02;5.10;;;;;;;-144.43;100.00;67396.00;5088681;28;20040;-57
2022/08/14 03:06:57;;;;;;;18.25;4.80;;;;;;;-144.43;100.00;67396.00;5087309;28;20179;-57
2022/08/14 03:09:25;;;;;;;17.42;4.47;;;;;;;-144.43;100.00;67396.00;5089576;28;20395;-57
2022/08/14 03:11:52;;;;;;;17.98;6.38;;;;;;;-144.43;100.00;67396.00;5089615;28;20432;-57
2022/08/14 03:14:21;;;;;;;22.98;8.05;;;;;;;-144.43;100.00;67396.00;5091105;28;21148;-57
2022/08/14 03:16:49;;;;;;;25.85;7.30;;;;;;;-144.43;100.00;67396.00;5087103;28;20046;-58
2022/08/14 03:19:16;;;;;;;21.92;6.97;;;;;;;-144.43;100.00;67396.00;5084882;28;20484;-57
2022/08/14 03:21:44;;;;;;;19.88;7.30;;;;;;;-144.43;100.00;67396.00;5090892;28;20398;-57
2022/08/14 03:24:11;;;;;;;26.30;7.78;;;;;;;-144.43;100.00;67396.00;5091878;28;20050;-57
2022/08/14 03:26:44;;;;;;;24.00;8.23;;;;;;;-144.43;100.00;67396.00;5091344;28;20122;-58
2022/08/14 03:29:19;;;;;;;26.17;8.38;;;;;;;-144.43;100.00;67396.00;5089386;28;20436;-57
2022/08/14 03:31:50;;;;;;;28.35;7.90;;;;;;;-144.43;100.00;67396.00;5091534;28;20081;-57
2022/08/14 03:34:18;;;;;;;25.27;7.40;;;;;;;-144.43;100.00;67396.00;5091065;28;20038;-58
2022/08/14 03:37:43;;;;;;;21.58;6.18;;;;;;;-144.43;100.00;67396.00;5092918;28;20035;-58
2022/08/14 03:41:17;;;;;;;16.80;4.97;;;;;;;-144.43;100.00;67396.00;5078052;28;20501;-57
2022/08/14 03:44:48;;;;;;;17.05;4.78;;;;;;;-144.43;100.00;67396.00;5088014;28;20036;-59
2022/08/14 03:48:18;;;;;;;13.70;4.97;;;;;;;-144.43;100.00;67396.00;5088386;28;20028;-60
2022/08/14 03:51:44;;;;;;;18.52;4.60;;;;;;;-144.43;100.00;67396.00;5091493;28;20044;-57
2022/08/14 03:55:11;;;;;;;20.25;5.30;;;;;;;-144.43;100.00;67396.00;5089724;28;20028;-57
2022/08/14 03:58:41;;;;;;;21.92;5.32;;;;;;;-144.43;100.00;67396.00;5086186;28;20029;-59
2022/08/14 04:02:07;;;;;;;27.00;5.15;;;;;;;-144.43;100.00;67396.00;5087144;28;20032;-57
2022/08/14 04:05:33;;;;;;;18.77;5.30;;;;;;;-144.43;100.00;67396.00;5088099;28;20094;-58
2022/08/14 04:08:59;;;;;;;27.95;6.63;;;;;;;-144.43;100.00;67396.00;5087942;28;20044;-58
2022/08/14 04:12:24;;;;;;;;;;;;;;;-144.43;100.00;67396.00;5099397;28;20130;-57
2022/08/14 04:15:50;;;;;;;40.30;8.90;;;;;;;-144.43;100.00;67396.00;5087761;28;20469;-58
2022/08/14 04:19:19;;;;;;;44.22;8.70;;;;;;;-144.43;100.00;67396.00;5089020;28;20118;-57
2022/08/14 04:22:44;;;;;;;51.25;9.60;;;;;;;-144.43;100.00;67396.00;5090519;28;20107;-58
2022/08/14 04:26:11;;;;;;;61.13;9.25;;;;;;;-144.43;100.00;67396.00;5088950;28;20031;-58
2022/08/14 04:29:40;;;;;;;45.13;9.18;;;;;;;-144.43;100.00;67396.00;5088929;28;20115;-58
2022/08/14 04:33:07;;;;;;;51.50;9.20;;;;;;;-144.43;100.00;67396.00;5081412;28;20124;-58
2022/08/14 04:43:34;;;;;;;45.05;8.35;;;;;;;-144.43;100.00;67396.00;5086617;28;20047;-58
2022/08/14 04:44:05;;;;;;;58.03;8.90;;;;;;;-144.43;100.00;67396.00;5089015;28;20039;-58
2022/08/14 04:51:19;;;;;;;53.08;9.10;;;;;;;-144.43;100.00;67396.00;5091666;28;20036;-58
2022/08/14 04:54:46;;;;;;;48.35;8.35;;;;;;;-144.43;100.00;67396.00;5092934;28;20169;-60
2022/08/14 04:58:11;;;;;;;46.58;8.35;;;;;;;-144.43;100.00;67396.00;5092627;28;20043;-59
2022/08/14 05:01:40;;;;;;;49.33;9.47;;;;;;;-144.43;100.00;67396.00;5083997;28;20063;-59
2022/08/14 05:05:07;;;;;;;63.15;10.75;;;;;;;-144.43;100.00;67396.00;5090226;28;20319;-60
2022/08/14 05:07:41;;;;;;;51.85;10.63;;;;;;;-144.43;100.00;67396.00;5092178;28;20090;-59
2022/08/14 05:10:08;;;;;;;59.33;11.63;;;;;;;-144.43;100.00;67396.00;5092511;28;20040;-59
2022/08/14 05:12:38;;;;;;;54.88;10.90;;;;;;;-144.43;100.00;67396.00;5092486;28;20048;-59
2022/08/14 05:15:06;;;;;;;47.13;10.57;;;;;;;-144.43;100.00;67396.00;5091956;28;20035;-59
2022/08/14 05:17:33;;;;;;;49.92;10.30;;;;;;;-144.43;100.00;67396.00;5092425;28;20486;-59
2022/08/14 05:20:01;;;;;;;49.15;10.98;;;;;;;-144.43;100.00;67396.00;5092147;28;20036;-60
2022/08/14 05:22:28;;;;;;;55.70;11.45;;;;;;;-144.43;100.00;67396.00;5089963;28;20603;-58
2022/08/14 05:24:55;;;;;;;40.30;10.88;;;;;;;-144.43;100.00;67396.00;5092312;28;20028;-60
2022/08/14 05:27:22;;;;;;;48.03;10.68;;;;;;;-144.43;100.00;67396.00;5091870;28;20066;-60
2022/08/14 05:29:49;;;;;;;55.08;11.40;;;;;;;-144.43;100.00;67396.00;5091223;28;20480;-59
2022/08/14 05:32:16;;;;;;;56.97;11.52;;;;;;;-144.43;100.00;67396.00;5093628;28;20016;-60
2022/08/14 05:34:43;;;;;;;56.58;11.32;;;;;;;-144.43;100.00;67396.00;5082725;28;20440;-59
2022/08/14 05:37:10;;;;;;;51.03;12.07;;;;;;;-144.43;100.00;67396.00;5092018;28;20031;-60
2022/08/14 05:39:40;;;;;;;57.30;10.32;;;;;;;-144.43;100.00;67396.00;5089725;28;20036;-59
2022/08/14 05:42:07;;;;;;;47.65;10.30;;;;;;;-144.43;100.00;67396.00;5089615;28;20032;-60
2022/08/14 05:44:34;;;;;;;73.40;11.65;;;;;;;-144.43;100.00;67396.00;5090939;28;20023;-59
2022/08/14 05:47:01;;;;;;;47.20;9.52;;;;;;;-144.43;100.00;67396.00;5091113;28;20549;-59
2022/08/14 05:49:28;;;;;;;44.08;9.35;;;;;;;-144.43;100.00;67396.00;5090663;28;20024;-60
2022/08/14 05:51:55;;;;;;;49.85;10.60;;;;;;;-144.43;100.00;67396.00;5087729;28;20138;-59
2022/08/14 05:54:22;;;;;;;46.92;10.93;;;;;;;-144.43;100.00;67396.00;5087018;28;20020;-59
2022/08/14 05:56:49;;;;;;;46.83;11.30;;;;;;;-144.43;100.00;67396.00;5090823;28;20020;-60
2022/08/14 05:59:15;;;;;;;42.15;10.13;;;;;;;-144.43;100.00;67396.00;5091544;28;20454;-60
2022/08/14 06:01:42;;;;;;;59.92;10.68;;;;;;;-144.43;100.00;67396.00;5091715;28;20043;-59
2022/08/14 06:04:09;;;;;;;51.15;9.52;;;;;;;-144.43;100.00;67396.00;5089169;28;20028;-60
2022/08/14 06:06:36;;;;;;;47.28;9.18;;;;;;;-144.43;100.00;67396.00;5089887;28;20082;-60
2022/08/14 06:09:03;;;;;;;47.15;7.75;;;;;;;-144.43;100.00;67396.00;5093056;28;20073;-60
2022/08/14 06:11:30;;;;;;;30.77;7.45;;;;;;;-144.43;100.00;67396.00;5084735;28;20545;-57
2022/08/14 06:13:57;;;;;;;47.05;7.97;;;;;;;-144.43;100.00;67396.00;5089914;28;20484;-58
2022/08/14 06:16:24;;;;;;;32.83;8.00;;;;;;;-144.43;100.00;67396.00;5088995;28;20127;-59
2022/08/14 06:18:51;;;;;;;33.75;6.90;;;;;;;-144.43;100.00;67396.00;5088316;28;20036;-59
2022/08/14 06:21:18;;;;;;;33.75;7.78;;;;;;;-144.43;100.00;67396.00;5071249;28;20021;-61
2022/08/14 06:23:45;;;;;;;39.25;8.27;;;;;;;-144.43;100.00;67396.00;5071710;28;20027;-61
2022/08/14 06:26:12;;;;;;;30.23;7.75;;;;;;;-144.43;100.00;67396.00;5083910;28;20028;-61
2022/08/14 06:28:38;;;;;;;37.15;8.68;;;;;;;-144.43;100.00;67396.00;5090754;28;20020;-62
2022/08/14 06:31:06;;;;;;;25.98;7.30;;;;;;;-144.43;100.00;67396.00;5090627;28;20048;-61
2022/08/14 06:33:32;;;;;;;20.70;6.90;;;;;;;-144.43;100.00;67396.00;5092403;28;20095;-61
2022/08/14 06:35:59;;;;;;;12.63;4.90;;;;;;;-144.43;100.00;67396.00;5095937;28;20035;-61
2022/08/14 06:38:26;;;;;;;10.63;4.00;;;;;;;-144.43;100.00;67396.00;5099155;28;20024;-62
2022/08/14 06:40:53;;;;;;;10.95;3.20;;;;;;;-144.43;100.00;67396.00;5093954;28;20040;-61
2022/08/14 06:43:21;;;;;;;13.60;2.95;;;;;;;-144.43;100.00;67396.00;5096669;28;20712;-61
2022/08/14 06:45:50;;;;;;;7.15;2.22;;;;;;;-144.43;100.00;67396.00;5087886;28;20160;-61
2022/08/14 06:48:22;;;;;;;10.00;2.10;;;;;;;-144.43;100.00;67396.00;5075752;28;20482;-60
2022/08/14 06:50:51;;;;;;;10.05;2.15;;;;;;;-144.43;100.00;67396.00;5076205;28;20089;-60
2022/08/14 06:53:18;;;;;;;6.05;1.90;;;;;;;-144.43;100.00;67396.00;5076092;28;20343;-61
2022/08/14 06:55:47;;;;;;;13.25;2.40;;;;;;;-144.43;100.00;67396.00;5096828;28;20461;-61
2022/08/14 06:58:16;;;;;;;9.52;2.95;;;;;;;-144.43;100.00;67396.00;5092664;28;20046;-61
2022/08/14 07:05:44;;;;;;;10.73;2.70;;;;;;;-144.43;100.00;67396.00;5094421;28;20055;-61
2022/08/14 07:06:18;;;;;;;7.40;3.15;;;;;;;-144.43;100.00;67396.00;5093143;28;20059;-61
2022/08/14 07:08:45;;;;;;;9.07;3.03;;;;;;;-144.43;100.00;67396.00;5091902;28;20031;-61
2022/08/14 07:11:12;;;;;;;8.10;3.10;;;;;;;-144.43;100.00;67396.00;5094881;28;20485;-61
2022/08/14 07:13:40;;;;;;;7.30;3.00;;;;;;;-144.43;100.00;67396.00;5095332;28;20133;-60
2022/08/14 07:16:07;;;;;;;10.15;2.97;;;;;;;-144.43;100.00;67396.00;5094934;28;20112;-60
2022/08/14 07:18:35;;;;;;;10.57;3.20;;;;;;;-144.43;100.00;67396.00;5095084;28;20036;-60
2022/08/14 07:21:04;;;;;;;7.93;2.60;;;;;;;-144.43;100.00;67396.00;5094906;28;20065;-61
2022/08/14 07:23:32;;;;;;;7.38;3.25;;;;;;;-144.43;100.00;67396.00;5095315;28;20414;-61
2022/08/14 07:26:01;;;;;;;8.25;3.20;;;;;;;-144.43;100.00;67396.00;5095047;28;20098;-61
2022/08/14 07:28:33;;;;;;;10.82;4.22;;;;;;;-144.43;100.00;67396.00;5093992;28;20028;-60
2022/08/14 07:31:02;;;;;;;11.05;4.68;;;;;;;-144.43;100.00;67396.00;5094493;28;20035;-61
2022/08/14 07:33:38;;;;;;;13.15;6.18;;;;;;;-144.43;100.00;67396.00;5095940;28;20024;-60
2022/08/14 07:36:08;;;;;;;11.18;7.05;;;;;;;-144.43;100.00;67396.00;5092095;28;20058;-61
2022/08/14 07:38:35;;;;;;;12.98;7.18;;;;;;;-144.43;100.00;67396.00;5094812;28;20123;-61
2022/08/14 07:41:04;;;;;;;14.75;7.13;;;;;;;-144.43;100.00;67396.00;5094538;28;20023;-61
2022/08/14 07:43:31;;;;;;;13.85;6.95;;;;;;;-144.43;100.00;67396.00;5095084;28;20028;-61
2022/08/14 07:45:58;;;;;;;11.32;5.95;;;;;;;-144.43;100.00;67396.00;5094736;28;20020;-61
2022/08/14 07:48:25;;;;;;;7.65;4.30;;;;;;;-144.43;100.00;67396.00;5092362;28;20032;-62
2022/08/14 07:50:53;;;;;;;10.93;3.72;;;;;;;-144.43;100.00;67396.00;5092699;28;20024;-61
2022/08/14 07:53:20;;;;;;;8.25;3.30;;;;;;;-144.43;100.00;67396.00;5094978;28;20036;-61
2022/08/14 07:55:48;;;;;;;5.90;2.70;;;;;;;-144.43;100.00;67396.00;5094863;28;20497;-61
2022/08/14 07:58:19;;;;;;;6.82;2.60;;;;;;;-144.43;100.00;67396.00;5095123;28;20036;-61
2022/08/14 08:00:46;;;;;;;5.18;2.45;;;;;;;-144.43;100.00;67396.00;5092750;28;20020;-61
2022/08/14 08:03:14;;;;;;;5.25;2.40;;;;;;;-144.43;100.00;67396.00;5095346;28;20040;-61
2022/08/14 08:05:41;;;;;;;7.75;2.78;;;;;;;-144.43;100.00;67396.00;5095251;28;20039;-61
2022/08/14 08:08:10;;;;;;;6.55;3.10;;;;;;;-144.43;100.00;67396.00;5094888;28;20028;-61
2022/08/14 08:10:41;;;;;;;5.00;3.03;;;;;;;-144.43;100.00;67396.00;5095361;28;20032;-62
2022/08/14 08:13:14;;;;;;;4.85;2.80;;;;;;;-144.43;100.00;67396.00;5094676;28;20036;-60
2022/08/14 08:15:45;;;;;;;6.87;2.37;;;;;;;-144.43;100.00;67396.00;5095019;28;20036;-60
2022/08/14 08:18:14;;;;;;;6.60;2.25;;;;;;;-144.43;100.00;67396.00;5095044;28;20742;-60
2022/08/14 08:20:47;;;;;;;8.18;2.20;;;;;;;-144.43;100.00;67396.00;5094855;28;20463;-60
2022/08/14 08:23:16;;;;;;;4.35;2.10;;;;;;;-144.43;100.00;67396.00;5094401;28;20028;-60
2022/08/14 08:25:46;;;;;;;4.97;2.00;;;;;;;-144.43;100.00;67396.00;5094822;28;20031;-60
2022/08/14 08:28:17;;;;;;;3.75;1.88;;;;;;;-144.43;100.00;67396.00;5094355;28;20043;-59
2022/08/14 08:30:50;;;;;;;7.05;2.17;;;;;;;-144.43;100.00;67396.00;5094878;28;20028;-60
2022/08/14 08:33:20;;;;;;;2.90;1.92;;;;;;;-144.43;100.00;67396.00;5093644;28;20036;-60
2022/08/14 08:35:48;;;;;;;6.88;2.53;;;;;;;-144.43;100.00;67396.00;5094699;28;20400;-59
2022/08/14 08:38:18;;;;;;;5.30;2.80;;;;;;;-144.43;100.00;67396.00;5094573;28;20107;-59
2022/08/14 08:40:50;;;;;;;9.55;5.53;;;;;;;-144.43;100.00;67396.00;5094594;28;20036;-60
2022/08/14 08:43:34;;;;;;;10.65;5.57;;;;;;;-144.43;100.00;67396.00;5094617;28;20032;-59
2022/08/14 08:46:10;;;;;;;9.93;4.28;;;;;;;-144.43;100.00;67396.00;5094524;28;20036;-60
2022/08/14 08:48:51;;;;;;;6.32;3.40;;;;;;;-144.43;100.00;67396.00;5094615;28;20115;-59
2022/08/14 08:51:31;;;;;;;5.55;2.70;;;;;;;-144.43;100.00;67396.00;5094512;28;20036;-60
2022/08/14 08:54:00;;;;;;;6.05;3.25;;;;;;;-144.43;100.00;67396.00;5094414;28;20032;-59
2022/08/14 08:56:37;;;;;;;7.68;2.50;;;;;;;-144.43;100.00;67396.00;5094258;28;20028;-59
2022/08/14 08:59:18;;;;;;;7.15;2.30;;;;;;;-144.43;100.00;67396.00;5094105;28;20036;-59
2022/08/14 09:01:53;;;;;;;5.95;2.10;;;;;;;-144.43;100.00;67396.00;5093644;28;20109;-59
2022/08/14 09:04:20;;;;;;;3.35;2.05;;;;;;;-144.43;100.00;67396.00;5092955;28;20467;-60
2022/08/14 09:06:49;;;;;;;6.22;1.90;;;;;;;-144.43;100.00;67396.00;5093977;28;20032;-59
2022/08/14 09:09:21;;;;;;;4.90;1.80;;;;;;;-144.43;100.00;67396.00;5094089;28;20039;-59
2022/08/14 09:11:48;;;;;;;5.90;2.05;;;;;;;-144.43;100.00;67396.00;5093851;28;20032;-59
2022/08/14 09:14:15;;;;;;;5.43;2.13;;;;;;;-144.43;100.00;67396.00;5094037;28;20474;-59
2022/08/14 09:16:42;;;;;;;5.70;1.90;;;;;;;-144.43;100.00;67396.00;5093955;28;20482;-59
2022/08/14 09:19:10;;;;;;;2.95;1.52;;;;;;;-144.43;100.00;67396.00;5093739;28;20117;-59
2022/08/14 09:21:38;;;;;;;3.92;1.90;;;;;;;-144.43;100.00;67396.00;5093873;28;20031;-59
2022/08/14 09:24:07;;;;;;;4.97;2.00;;;;;;;-144.43;100.00;67396.00;5092637;28;20077;-59
2022/08/14 09:26:34;;;;;;;4.80;1.80;;;;;;;-144.43;100.00;67396.00;5093670;28;20020;-59
2022/08/14 09:29:02;;;;;;;7.32;2.00;;;;;;;-144.43;100.00;67396.00;5093690;28;20044;-59
2022/08/14 09:31:31;;;;;;;3.75;1.90;;;;;;;-144.43;100.00;67396.00;5093772;28;20086;-59
2022/08/14 09:34:10;;;;;;;7.90;2.20;;;;;;;-144.43;100.00;67396.00;5093809;28;20478;-59
2022/08/14 09:36:48;;;;;;;5.10;2.00;;;;;;;-144.43;100.00;67396.00;5093715;28;20048;-59
2022/08/14 09:39:37;;;;;;;3.80;1.80;;;;;;;-144.43;100.00;67396.00;5093622;28;20458;-59
2022/08/14 09:42:23;;;;;;;5.72;1.92;;;;;;;-144.43;100.00;67396.00;5093750;28;20115;-59
2022/08/14 09:45:09;;;;;;;5.93;2.13;;;;;;;-144.43;100.00;67396.00;5093608;28;20435;-59
2022/08/14 09:47:49;;;;;;;4.10;2.00;;;;;;;-144.43;100.00;67396.00;5093324;28;20042;-59
2022/08/14 09:50:23;;;;;;;4.15;2.05;;;;;;;-144.43;100.00;67396.00;5092214;28;20100;-59
2022/08/14 09:52:51;;;;;;;;;;;;;;;-144.43;100.00;67396.00;5093874;28;20056;-61
2022/08/14 09:55:21;;;;;;;4.28;2.67;;;;;;;-144.43;100.00;67396.00;5093698;28;19998;-60
2022/08/14 09:57:49;;;;;;;6.68;3.17;;;;;;;-144.43;100.00;67396.00;5093501;28;20032;-60
2022/08/14 10:00:18;;;;;;;6.68;4.20;;;;;;;-144.43;100.00;67396.00;5093173;28;20093;-60
2022/08/14 10:03:01;;;;;;;8.85;4.20;;;;;;;-144.43;100.00;67396.00;5092941;28;20046;-60
2022/08/14 10:05:33;;;;;;;10.43;3.85;;;;;;;-144.43;100.00;67396.00;5093530;28;20483;-60
2022/08/14 10:08:02;;;;;;;6.90;3.40;;;;;;;-144.43;100.00;67396.00;5093432;28;20028;-60
2022/08/14 10:10:34;;;;;;;5.38;2.67;;;;;;;-144.43;100.00;67396.00;5093180;28;20032;-60
2022/08/14 10:13:06;;;;;;;6.60;3.13;;;;;;;-144.43;100.00;67396.00;5092522;28;20386;-59
2022/08/14 10:15:44;;;;;;;6.15;3.10;;;;;;;-144.43;100.00;67396.00;5093222;28;20486;-59
2022/08/14 10:18:14;;;;;;;4.63;2.83;;;;;;;-144.43;100.00;67396.00;5093043;28;20077;-60
2022/08/14 10:21:03;;;;;;;7.15;2.50;;;;;;;-144.43;100.00;67396.00;5092060;28;20114;-60
2022/08/14 10:23:43;;;;;;;7.20;2.17;;;;;;;-144.43;100.00;67396.00;5092951;28;20059;-59
2022/08/14 10:26:15;;;;;;;5.13;2.20;;;;;;;-144.43;100.00;67396.00;5092926;28;20047;-60
2022/08/14 10:28:45;;;;;;;8.48;2.20;;;;;;;-144.43;100.00;67396.00;5092952;28;20036;-60
2022/08/14 10:31:30;;;;;;;6.70;2.28;;;;;;;-144.43;100.00;67396.00;5092841;28;20040;-60
2022/08/14 10:34:01;;;;;;;9.13;2.30;;;;;;;-144.43;100.00;67396.00;5092821;28;20498;-60
2022/08/14 10:36:31;;;;;;;7.65;2.53;;;;;;;-144.43;100.00;67396.00;5092937;28;20035;-60
2022/08/14 10:39:02;;;;;;;4.80;2.20;;;;;;;-144.43;100.00;67396.00;5092772;28;20047;-59
2022/08/14 10:41:41;;;;;;;6.95;2.72;;;;;;;-144.43;100.00;67396.00;5092873;28;20056;-60
2022/08/14 10:44:11;;;;;;;5.45;2.28;;;;;;;-144.43;100.00;67396.00;5092693;28;20135;-60
2022/08/14 10:47:01;;;;;;;4.22;2.13;;;;;;;-144.43;100.00;67396.00;5093106;28;20066;-60
2022/08/14 10:49:29;;;;;;;7.97;2.67;;;;;;;-144.43;100.00;67396.00;5092687;28;20036;-60
2022/08/14 10:52:14;;;;;;;10.63;2.97;;;;;;;-144.43;100.00;67396.00;5092882;28;20028;-60
2022/08/14 10:54:45;;;;;;;6.43;2.70;;;;;;;-144.43;100.00;67396.00;5092842;28;20036;-60
2022/08/14 10:57:24;;;;;;;7.93;3.30;;;;;;;-144.43;100.00;67396.00;5093237;28;20115;-60
2022/08/14 10:59:54;;;;;;;5.20;3.08;;;;;;;-144.43;100.00;67396.00;5092678;28;20115;-59
2022/08/14 11:02:28;;;;;;;8.20;3.38;;;;;;;-144.43;100.00;67396.00;5092490;28;20052;-59
2022/08/14 11:05:14;;;;;;;5.97;3.10;;;;;;;-144.43;100.00;67396.00;5092685;28;20050;-59
2022/08/14 11:07:55;;;;;;;18.75;3.60;;;;;;;-144.43;100.00;67396.00;5092680;28;20047;-59
2022/08/14 11:10:25;;;;;;;9.35;3.20;;;;;;;-144.43;100.00;67396.00;5092656;28;20032;-59
2022/08/14 11:12:56;;;;;;;7.57;3.70;;;;;;;-144.43;100.00;67396.00;5092469;28;20032;-59
2022/08/14 11:15:27;;;;;;;11.23;4.13;;;;;;;-144.43;100.00;67396.00;5092855;28;20032;-60
2022/08/14 11:17:55;;;;;;;10.40;4.80;;;;;;;-144.43;100.00;67396.00;5092572;28;20065;-60
2022/08/14 11:20:28;;;;;;;7.78;5.05;;;;;;;-144.43;100.00;67396.00;5092366;28;20032;-60
2022/08/14 11:22:57;;;;;;;7.90;5.40;;;;;;;-144.43;100.00;67396.00;5092619;28;20054;-60
2022/08/14 11:25:30;;;;;;;9.48;4.90;;;;;;;-144.43;100.00;67396.00;5095667;28;20059;-60
2022/08/14 11:27:59;;;;;;;13.68;4.95;;;;;;;-144.43;100.00;67396.00;5096300;28;20024;-60
2022/08/14 11:30:29;;;;;;;8.43;4.80;;;;;;;-144.43;100.00;67396.00;5096240;28;20089;-60
2022/08/14 11:32:57;;;;;;;9.30;4.88;;;;;;;-144.43;100.00;67396.00;5096345;28;20050;-60
2022/08/14 11:35:26;;;;;;;7.53;4.45;;;;;;;-144.43;100.00;67396.00;5094770;28;20024;-60
2022/08/14 11:37:58;;;;;;;8.65;4.85;;;;;;;-144.43;100.00;67396.00;5096148;28;20032;-60
2022/08/14 11:40:29;;;;;;;9.90;5.82;;;;;;;-144.43;100.00;67396.00;5095927;28;20044;-60
2022/08/14 11:42:57;;;;;;;11.90;6.70;;;;;;;-144.43;100.00;67396.00;5096023;28;20486;-60
2022/08/14 11:45:26;;;;;;;10.00;6.10;;;;;;;-144.43;100.00;67396.00;5095775;28;20024;-60
2022/08/14 11:47:55;;;;;;;11.05;5.32;;;;;;;-144.43;100.00;67396.00;5095868;28;20068;-60
2022/08/14 11:50:33;;;;;;;10.20;4.85;;;;;;;-144.43;100.00;67396.00;5095670;28;20089;-60
2022/08/14 11:53:01;;;;;;;8.90;4.57;;;;;;;-144.43;100.00;67396.00;5095906;28;20028;-60
2022/08/14 11:55:35;;;;;;;9.23;4.97;;;;;;;-144.43;100.00;67396.00;5095552;28;20128;-61
2022/08/14 11:58:05;;;;;;;10.98;5.13;;;;;;;-144.43;100.00;67396.00;5095769;28;20040;-60